sensor_id;sensor_type;location;lat;lon;timestamp;pressure;altitude;pressure_sealevel;temperature;humidity
10587;BME280;5341;47.606;7.576;2023-02-14T00:02:11;100621.78;;;7.05;57.34
10587;BME280;5341;47.606;7.576;2023-02-14T00:04:38;100622.72;;;7.04;57.31
10587;BME280;5341;47.606;7.576;2023-02-14T00:07:10;100621.88;;;7.04;57.53
10587;BME280;5341;47.606;7.576;2023-02-14T00:09:38;100625.50;;;7.03;57.26
10587;BME280;5341;47.606;7.576;2023-02-14T00:12:05;100617.63;;;7.01;57.44
10587;BME280;5341;47.606;7.576;2023-02-14T00:14:32;100606.25;;;6.99;57.46
10587;BME280;5341;47.606;7.576;2023-02-14T00:17:17;100611.56;;;6.99;57.42
10587;BME280;5341;47.606;7.576;2023-02-14T00:19:45;100602.84;;;6.97;57.61
10587;BME280;5341;47.606;7.576;2023-02-14T00:22:25;100611.91;;;6.95;57.76
10587;BME280;5341;47.606;7.576;2023-02-14T00:24:54;100611.19;;;6.93;57.58
10587;BME280;5341;47.606;7.576;2023-02-14T00:27:23;100610.47;;;6.91;57.71
10587;BME280;5341;47.606;7.576;2023-02-14T00:29:50;100609.69;;;6.89;57.58
10587;BME280;5341;47.606;7.576;2023-02-14T00:32:19;100608.13;;;6.86;57.64
10587;BME280;5341;47.606;7.576;2023-02-14T00:34:46;100612.72;;;6.84;57.89
10587;BME280;5341;47.606;7.576;2023-02-14T00:37:16;100611.97;;;6.82;57.32
10587;BME280;5341;47.606;7.576;2023-02-14T00:39:44;100606.91;;;6.79;57.83
10587;BME280;5341;47.606;7.576;2023-02-14T00:42:12;100614.03;;;6.79;57.80
10587;BME280;5341;47.606;7.576;2023-02-14T00:44:40;100611.56;;;6.75;57.53
10587;BME280;5341;47.606;7.576;2023-02-14T00:47:08;100610.00;;;6.73;57.84
10587;BME280;5341;47.606;7.576;2023-02-14T00:49:44;100617.22;;;6.71;57.67
10587;BME280;5341;47.606;7.576;2023-02-14T00:52:11;100611.28;;;6.67;57.41
10587;BME280;5341;47.606;7.576;2023-02-14T00:54:40;100602.56;;;6.65;57.51
10587;BME280;5341;47.606;7.576;2023-02-14T00:57:07;100605.34;;;6.64;57.76
10587;BME280;5341;47.606;7.576;2023-02-14T00:59:35;100605.44;;;6.62;57.34
10587;BME280;5341;47.606;7.576;2023-02-14T01:02:03;100602.06;;;6.60;57.23
10587;BME280;5341;47.606;7.576;2023-02-14T01:04:30;100610.16;;;6.59;57.49
10587;BME280;5341;47.606;7.576;2023-02-14T01:06:58;100603.13;;;6.58;57.52
10587;BME280;5341;47.606;7.576;2023-02-14T01:09:26;100606.88;;;6.55;57.46
10587;BME280;5341;47.606;7.576;2023-02-14T01:11:55;100608.69;;;6.55;57.48
10587;BME280;5341;47.606;7.576;2023-02-14T01:14:23;100607.84;;;6.54;57.47
10587;BME280;5341;47.606;7.576;2023-02-14T01:16:50;100607.06;;;6.52;57.53
10587;BME280;5341;47.606;7.576;2023-02-14T01:19:18;100608.16;;;6.50;57.33
10587;BME280;5341;47.606;7.576;2023-02-14T01:21:45;100601.13;;;6.49;57.18
10587;BME280;5341;47.606;7.576;2023-02-14T01:24:14;100605.72;;;6.46;57.46
10587;BME280;5341;47.606;7.576;2023-02-14T01:26:42;100597.00;;;6.44;57.27
10587;BME280;5341;47.606;7.576;2023-02-14T01:29:11;100605.94;;;6.43;57.47
10587;BME280;5341;47.606;7.576;2023-02-14T01:31:38;100606.03;;;6.42;57.76
10587;BME280;5341;47.606;7.576;2023-02-14T01:34:06;100606.16;;;6.40;57.50
10587;BME280;5341;47.606;7.576;2023-02-14T01:36:35;100600.94;;;6.39;57.34
10587;BME280;5341;47.606;7.576;2023-02-14T01:39:04;100604.56;;;6.38;57.65
10587;BME280;5341;47.606;7.576;2023-02-14T01:41:35;100602.97;;;6.35;57.51
10587;BME280;5341;47.606;7.576;2023-02-14T01:44:06;100600.44;;;6.34;57.56
10587;BME280;5341;47.606;7.576;2023-02-14T01:46:37;100593.53;;;6.31;57.34
10587;BME280;5341;47.606;7.576;2023-02-14T01:49:07;100600.66;;;6.31;57.00
10587;BME280;5341;47.606;7.576;2023-02-14T01:51:37;100594.69;;;6.27;57.38
10587;BME280;5341;47.606;7.576;2023-02-14T01:54:07;100588.66;;;6.25;57.43
10587;BME280;5341;47.606;7.576;2023-02-14T01:56:40;100592.38;;;6.23;57.10
10587;BME280;5341;47.606;7.576;2023-02-14T01:59:14;100590.81;;;6.20;57.05
10587;BME280;5341;47.606;7.576;2023-02-14T02:01:47;100583.03;;;6.17;57.40
10587;BME280;5341;47.606;7.576;2023-02-14T02:04:21;100588.34;;;6.17;57.24
10587;BME280;5341;47.606;7.576;2023-02-14T02:06:52;100581.56;;;6.13;57.40
10587;BME280;5341;47.606;7.576;2023-02-14T02:09:27;100581.66;;;6.11;57.19
10587;BME280;5341;47.606;7.576;2023-02-14T02:11:59;100587.09;;;6.10;57.33
10587;BME280;5341;47.606;7.576;2023-02-14T02:14:28;100586.38;;;6.08;57.26
10587;BME280;5341;47.606;7.576;2023-02-14T02:17:15;100582.09;;;6.05;57.21
10587;BME280;5341;47.606;7.576;2023-02-14T02:23:03;100585.09;;;6.01;57.09
10587;BME280;5341;47.606;7.576;2023-02-14T02:26:05;100572.03;;;5.98;57.30
10587;BME280;5341;47.606;7.576;2023-02-14T02:29:01;100574.91;;;5.95;57.11
10587;BME280;5341;47.606;7.576;2023-02-14T02:31:50;100567.97;;;5.92;57.13
10587;BME280;5341;47.606;7.576;2023-02-14T02:37:40;100565.75;;;5.86;57.08
10587;BME280;5341;47.606;7.576;2023-02-14T02:40:27;100561.50;;;5.83;57.28
10587;BME280;5341;47.606;7.576;2023-02-14T02:43:06;100562.47;;;5.82;57.10
10587;BME280;5341;47.606;7.576;2023-02-14T02:45:43;100560.84;;;5.80;56.97
10587;BME280;5341;47.606;7.576;2023-02-14T02:48:33;100559.25;;;5.77;57.16
10587;BME280;5341;47.606;7.576;2023-02-14T02:51:06;100557.56;;;5.76;57.42
10587;BME280;5341;47.606;7.576;2023-02-14T02:53:58;100548.88;;;5.74;57.38
10587;BME280;5341;47.606;7.576;2023-02-14T02:56:31;100549.81;;;5.73;57.20
10587;BME280;5341;47.606;7.576;2023-02-14T02:59:18;100554.28;;;5.73;57.20
10587;BME280;5341;47.606;7.576;2023-02-14T03:01:55;100549.09;;;5.71;56.98
10587;BME280;5341;47.606;7.576;2023-02-14T03:04:25;100549.19;;;5.70;57.01
10587;BME280;5341;47.606;7.576;2023-02-14T03:07:09;100545.78;;;5.68;57.01
10587;BME280;5341;47.606;7.576;2023-02-14T03:09:57;100540.59;;;5.66;57.32
10587;BME280;5341;47.606;7.576;2023-02-14T03:12:44;100537.19;;;5.64;57.29
10587;BME280;5341;47.606;7.576;2023-02-14T03:15:21;100541.75;;;5.62;57.32
10587;BME280;5341;47.606;7.576;2023-02-14T03:18:00;100540.19;;;5.59;56.97
10587;BME280;5341;47.606;7.576;2023-02-14T03:20:39;100553.56;;;5.58;57.06
10587;BME280;5341;47.606;7.576;2023-02-14T03:23:15;100551.81;;;5.57;57.11
10587;BME280;5341;47.606;7.576;2023-02-14T03:25:59;100551.09;;;5.55;57.01
10587;BME280;5341;47.606;7.576;2023-02-14T03:28:35;100559.16;;;5.53;57.00
10587;BME280;5341;47.606;7.576;2023-02-14T03:31:09;100555.66;;;5.53;56.99
10587;BME280;5341;47.606;7.576;2023-02-14T03:33:45;100556.72;;;5.50;57.53
10587;BME280;5341;47.606;7.576;2023-02-14T03:36:18;100560.34;;;5.49;57.35
10587;BME280;5341;47.606;7.576;2023-02-14T03:38:49;100561.31;;;5.48;57.30
10587;BME280;5341;47.606;7.576;2023-02-14T03:41:22;100568.41;;;5.48;57.33
10587;BME280;5341;47.606;7.576;2023-02-14T03:43:54;100565.03;;;5.46;57.45
10587;BME280;5341;47.606;7.576;2023-02-14T03:46:25;100568.59;;;5.45;57.26
10587;BME280;5341;47.606;7.576;2023-02-14T03:48:57;100568.72;;;5.43;56.92
10587;BME280;5341;47.606;7.576;2023-02-14T03:51:27;100570.50;;;5.43;57.11
10587;BME280;5341;47.606;7.576;2023-02-14T03:54:00;100560.97;;;5.40;56.85
10587;BME280;5341;47.606;7.576;2023-02-14T03:56:33;100562.78;;;5.40;57.18
10587;BME280;5341;47.606;7.576;2023-02-14T03:59:07;100561.91;;;5.39;57.28
10587;BME280;5341;47.606;7.576;2023-02-14T04:01:42;100562.88;;;5.38;56.85
10587;BME280;5341;47.606;7.576;2023-02-14T04:04:14;100565.63;;;5.37;57.20
10587;BME280;5341;47.606;7.576;2023-02-14T04:06:44;100567.44;;;5.36;57.07
10587;BME280;5341;47.606;7.576;2023-02-14T04:09:12;100575.41;;;5.36;56.93
10587;BME280;5341;47.606;7.576;2023-02-14T04:11:41;100571.06;;;5.35;57.14
10587;BME280;5341;47.606;7.576;2023-02-14T04:14:08;100575.63;;;5.33;56.87
10587;BME280;5341;47.606;7.576;2023-02-14T04:16:35;100576.53;;;5.32;57.24
10587;BME280;5341;47.606;7.576;2023-02-14T04:19:16;100572.19;;;5.31;57.32
10587;BME280;5341;47.606;7.576;2023-02-14T04:21:50;100568.81;;;5.29;57.41
10587;BME280;5341;47.606;7.576;2023-02-14T04:24:18;100569.75;;;5.28;56.95
10587;BME280;5341;47.606;7.576;2023-02-14T04:26:47;100560.22;;;5.25;57.00
10587;BME280;5341;47.606;7.576;2023-02-14T04:29:28;100569.13;;;5.24;57.22
10587;BME280;5341;47.606;7.576;2023-02-14T04:31:56;100568.28;;;5.24;56.82
10587;BME280;5341;47.606;7.576;2023-02-14T04:34:23;100570.19;;;5.22;57.23
10587;BME280;5341;47.606;7.576;2023-02-14T04:36:51;100566.75;;;5.20;56.93
10587;BME280;5341;47.606;7.576;2023-02-14T04:39:19;100573.88;;;5.19;57.07
10587;BME280;5341;47.606;7.576;2023-02-14T04:41:48;100567.84;;;5.17;57.09
10587;BME280;5341;47.606;7.576;2023-02-14T04:44:15;100565.28;;;5.16;56.78
10587;BME280;5341;47.606;7.576;2023-02-14T04:46:43;100563.69;;;5.13;57.32
10587;BME280;5341;47.606;7.576;2023-02-14T04:49:10;100560.19;;;5.13;56.81
10587;BME280;5341;47.606;7.576;2023-02-14T04:51:38;100563.81;;;5.12;56.57
10587;BME280;5341;47.606;7.576;2023-02-14T04:54:05;100563.91;;;5.10;57.11
10587;BME280;5341;47.606;7.576;2023-02-14T04:56:33;100566.56;;;5.10;56.88
10587;BME280;5341;47.606;7.576;2023-02-14T04:59:03;100556.91;;;5.09;56.80
10587;BME280;5341;47.606;7.576;2023-02-14T05:01:31;100550.94;;;5.06;56.93
10587;BME280;5341;47.606;7.576;2023-02-14T05:03:59;100557.19;;;5.05;56.38
10587;BME280;5341;47.606;7.576;2023-02-14T05:06:28;100550.19;;;5.04;56.59
10587;BME280;5341;47.606;7.576;2023-02-14T05:08:56;100545.84;;;5.03;57.03
10587;BME280;5341;47.606;7.576;2023-02-14T05:11:24;100554.88;;;5.00;56.67
10587;BME280;5341;47.606;7.576;2023-02-14T05:13:51;100551.38;;;4.99;56.78
10587;BME280;5341;47.606;7.576;2023-02-14T05:16:24;100554.97;;;4.98;56.61
10587;BME280;5341;47.606;7.576;2023-02-14T05:18:52;100555.94;;;4.97;56.64
10587;BME280;5341;47.606;7.576;2023-02-14T05:21:21;100552.44;;;4.97;56.75
10587;BME280;5341;47.606;7.576;2023-02-14T05:23:51;100556.97;;;4.95;56.79
10587;BME280;5341;47.606;7.576;2023-02-14T05:26:19;100556.09;;;4.94;57.15
10587;BME280;5341;47.606;7.576;2023-02-14T05:28:47;100560.66;;;4.92;56.96
10587;BME280;5341;47.606;7.576;2023-02-14T05:31:15;100561.63;;;4.91;56.57
10587;BME280;5341;47.606;7.576;2023-02-14T05:33:50;100561.72;;;4.90;56.33
10587;BME280;5341;47.606;7.576;2023-02-14T05:36:19;100576.91;;;4.88;57.10
10587;BME280;5341;47.606;7.576;2023-02-14T05:38:50;100567.25;;;4.87;56.51
10587;BME280;5341;47.606;7.576;2023-02-14T05:41:18;100570.00;;;4.85;56.35
10587;BME280;5341;47.606;7.576;2023-02-14T05:43:51;100576.22;;;4.84;56.33
10587;BME280;5341;47.606;7.576;2023-02-14T05:46:19;100571.13;;;4.81;56.91
10587;BME280;5341;47.606;7.576;2023-02-14T05:48:48;100579.94;;;4.82;57.07
10587;BME280;5341;47.606;7.576;2023-02-14T05:51:16;100581.84;;;4.80;56.99
10587;BME280;5341;47.606;7.576;2023-02-14T05:53:43;100584.50;;;4.80;56.71
10587;BME280;5341;47.606;7.576;2023-02-14T05:56:10;100581.94;;;4.78;56.68
10587;BME280;5341;47.606;7.576;2023-02-14T05:58:38;100587.34;;;4.77;56.40
10587;BME280;5341;47.606;7.576;2023-02-14T06:01:06;100588.31;;;4.76;56.35
10587;BME280;5341;47.606;7.576;2023-02-14T06:03:33;100583.94;;;4.75;56.45
10587;BME280;5341;47.606;7.576;2023-02-14T06:06:02;100584.91;;;4.74;57.03
10587;BME280;5341;47.606;7.576;2023-02-14T06:08:30;100591.16;;;4.73;56.59
10587;BME280;5341;47.606;7.576;2023-02-14T06:10:57;100584.97;;;4.72;56.47
10587;BME280;5341;47.606;7.576;2023-02-14T06:13:24;100587.72;;;4.70;56.77
10587;BME280;5341;47.606;7.576;2023-02-14T06:15:52;100587.84;;;4.69;56.39
10587;BME280;5341;47.606;7.576;2023-02-14T06:18:19;100586.13;;;4.68;57.13
10587;BME280;5341;47.606;7.576;2023-02-14T06:20:46;100595.03;;;4.67;56.79
10587;BME280;5341;47.606;7.576;2023-02-14T06:23:16;100589.84;;;4.65;56.53
10587;BME280;5341;47.606;7.576;2023-02-14T06:25:43;100592.50;;;4.65;57.01
10587;BME280;5341;47.606;7.576;2023-02-14T06:28:11;100595.25;;;4.64;57.04
10587;BME280;5341;47.606;7.576;2023-02-14T06:30:38;100597.03;;;4.63;56.97
10587;BME280;5341;47.606;7.576;2023-02-14T06:33:05;100600.66;;;4.62;56.65
10587;BME280;5341;47.606;7.576;2023-02-14T06:35:33;100600.75;;;4.61;56.43
10587;BME280;5341;47.606;7.576;2023-02-14T06:38:00;100595.53;;;4.59;56.62
10587;BME280;5341;47.606;7.576;2023-02-14T06:40:29;100603.47;;;4.59;56.36
10587;BME280;5341;47.606;7.576;2023-02-14T06:42:56;100601.78;;;4.58;56.59
10587;BME280;5341;47.606;7.576;2023-02-14T06:45:24;100600.94;;;4.58;56.73
10587;BME280;5341;47.606;7.576;2023-02-14T06:47:51;100602.72;;;4.57;56.27
10587;BME280;5341;47.606;7.576;2023-02-14T06:50:18;100608.03;;;4.57;56.75
10587;BME280;5341;47.606;7.576;2023-02-14T06:52:46;100601.03;;;4.56;56.62
10587;BME280;5341;47.606;7.576;2023-02-14T06:55:13;100601.97;;;4.55;57.00
10587;BME280;5341;47.606;7.576;2023-02-14T06:57:43;100598.47;;;4.55;57.03
10587;BME280;5341;47.606;7.576;2023-02-14T07:00:11;100604.72;;;4.54;57.07
10587;BME280;5341;47.606;7.576;2023-02-14T07:02:39;100607.47;;;4.52;57.00
10587;BME280;5341;47.606;7.576;2023-02-14T07:05:07;100599.63;;;4.51;56.44
10587;BME280;5341;47.606;7.576;2023-02-14T07:07:35;100601.44;;;4.50;57.01
10587;BME280;5341;47.606;7.576;2023-02-14T07:10:03;100603.13;;;4.51;56.82
10587;BME280;5341;47.606;7.576;2023-02-14T07:12:31;100598.69;;;4.52;57.39
10587;BME280;5341;47.606;7.576;2023-02-14T07:15:01;100603.03;;;4.53;56.63
10587;BME280;5341;47.606;7.576;2023-02-14T07:17:28;100602.94;;;4.54;57.14
10587;BME280;5341;47.606;7.576;2023-02-14T07:19:55;100601.97;;;4.55;57.31
10587;BME280;5341;47.606;7.576;2023-02-14T07:22:23;100597.53;;;4.56;57.03
10587;BME280;5341;47.606;7.576;2023-02-14T07:24:50;100603.56;;;4.58;56.97
10587;BME280;5341;47.606;7.576;2023-02-14T07:27:18;100599.13;;;4.58;56.89
10587;BME280;5341;47.606;7.576;2023-02-14T07:29:46;100599.97;;;4.59;56.80
10587;BME280;5341;47.606;7.576;2023-02-14T07:32:15;100603.41;;;4.61;57.28
10587;BME280;5341;47.606;7.576;2023-02-14T07:34:42;100603.31;;;4.62;57.17
10587;BME280;5341;47.606;7.576;2023-02-14T07:37:10;100607.66;;;4.63;56.88
10587;BME280;5341;47.606;7.576;2023-02-14T07:39:37;100607.53;;;4.65;57.68
10587;BME280;5341;47.606;7.576;2023-02-14T07:42:04;100606.50;;;4.67;57.50
10587;BME280;5341;47.606;7.576;2023-02-14T07:44:33;100601.94;;;4.69;57.29
10587;BME280;5341;47.606;7.576;2023-02-14T07:47:01;100596.53;;;4.71;57.74
10587;BME280;5341;47.606;7.576;2023-02-14T07:49:30;100602.50;;;4.75;57.39
10587;BME280;5341;47.606;7.576;2023-02-14T07:51:57;100602.28;;;4.78;58.10
10587;BME280;5341;47.606;7.576;2023-02-14T07:54:24;100598.59;;;4.80;57.94
10587;BME280;5341;47.606;7.576;2023-02-14T07:56:52;100585.97;;;4.84;57.95
10587;BME280;5341;47.606;7.576;2023-02-14T07:59:19;100591.00;;;4.88;58.11
10587;BME280;5341;47.606;7.576;2023-02-14T08:01:47;100594.28;;;4.92;58.10
10587;BME280;5341;47.606;7.576;2023-02-14T08:04:15;100598.53;;;4.94;57.79
10587;BME280;5341;47.606;7.576;2023-02-14T08:06:45;100596.44;;;4.99;58.16
10587;BME280;5341;47.606;7.576;2023-02-14T08:09:12;100594.44;;;5.03;57.88
10587;BME280;5341;47.606;7.576;2023-02-14T08:11:49;100598.56;;;5.07;57.69
10587;BME280;5341;47.606;7.576;2023-02-14T08:14:34;100599.22;;;5.11;57.97
10587;BME280;5341;47.606;7.576;2023-02-14T08:17:01;100600.72;;;5.15;57.47
10587;BME280;5341;47.606;7.576;2023-02-14T08:19:29;100597.75;;;5.19;57.49
10587;BME280;5341;47.606;7.576;2023-02-14T08:21:58;100589.50;;;5.24;58.04
10587;BME280;5341;47.606;7.576;2023-02-14T08:24:25;100589.19;;;5.28;57.92
10587;BME280;5341;47.606;7.576;2023-02-14T08:26:52;100590.47;;;5.36;58.04
10587;BME280;5341;47.606;7.576;2023-02-14T08:29:20;100583.03;;;5.41;58.16
10587;BME280;5341;47.606;7.576;2023-02-14T08:31:47;100584.44;;;5.46;57.95
10587;BME280;5341;47.606;7.576;2023-02-14T08:34:15;100585.69;;;5.53;58.28
10587;BME280;5341;47.606;7.576;2023-02-14T08:36:43;100576.59;;;5.57;57.57
10587;BME280;5341;47.606;7.576;2023-02-14T08:39:12;100580.50;;;5.65;57.77
10587;BME280;5341;47.606;7.576;2023-02-14T08:41:40;100577.34;;;5.72;58.35
10587;BME280;5341;47.606;7.576;2023-02-14T08:44:08;100582.94;;;5.80;58.08
10587;BME280;5341;47.606;7.576;2023-02-14T08:46:36;100581.44;;;5.89;58.77
10587;BME280;5341;47.606;7.576;2023-02-14T08:49:03;100574.69;;;5.98;58.84
10587;BME280;5341;47.606;7.576;2023-02-14T08:51:33;100581.16;;;6.06;58.70
10587;BME280;5341;47.606;7.576;2023-02-14T08:54:00;100580.59;;;6.14;58.70
10587;BME280;5341;47.606;7.576;2023-02-14T08:56:48;100585.38;;;6.22;58.84
10587;BME280;5341;47.606;7.576;2023-02-14T08:59:16;100583.97;;;6.29;58.89
10587;BME280;5341;47.606;7.576;2023-02-14T09:04:45;100580.72;;;6.49;58.97
10587;BME280;5341;47.606;7.576;2023-02-14T09:07:37;100574.97;;;6.55;58.84
10587;BME280;5341;47.606;7.576;2023-02-14T09:10:06;100580.69;;;6.62;58.54
10587;BME280;5341;47.606;7.576;2023-02-14T09:12:42;100576.63;;;6.69;58.81
10587;BME280;5341;47.606;7.576;2023-02-14T09:15:10;100568.28;;;6.73;58.96
10587;BME280;5341;47.606;7.576;2023-02-14T09:20:20;100573.44;;;6.88;58.83
10587;BME280;5341;47.606;7.576;2023-02-14T09:22:54;100572.03;;;6.95;58.85
10587;BME280;5341;47.606;7.576;2023-02-14T09:25:24;100572.31;;;7.03;58.51
10587;BME280;5341;47.606;7.576;2023-02-14T09:27:55;100565.41;;;7.12;58.26
10587;BME280;5341;47.606;7.576;2023-02-14T09:30:26;100567.41;;;7.21;58.61
10587;BME280;5341;47.606;7.576;2023-02-14T09:33:26;100573.72;;;7.31;58.59
10587;BME280;5341;47.606;7.576;2023-02-14T09:35:56;100572.28;;;7.38;58.22
10587;BME280;5341;47.606;7.576;2023-02-14T09:41:08;100580.81;;;7.54;58.35
10587;BME280;5341;47.606;7.576;2023-02-14T09:43:51;100573.03;;;7.62;58.01
10587;BME280;5341;47.606;7.576;2023-02-14T09:46:27;100570.53;;;7.72;58.10
10587;BME280;5341;47.606;7.576;2023-02-14T09:48:59;100564.59;;;7.80;57.86
10587;BME280;5341;47.606;7.576;2023-02-14T09:51:30;100574.44;;;7.90;57.80
10587;BME280;5341;47.606;7.576;2023-02-14T09:54:04;100574.66;;;7.99;57.73
10587;BME280;5341;47.606;7.576;2023-02-14T09:56:49;100570.41;;;8.07;57.57
10587;BME280;5341;47.606;7.576;2023-02-14T09:59:30;100578.53;;;8.17;57.28
10587;BME280;5341;47.606;7.576;2023-02-14T10:02:17;100570.88;;;8.23;57.44
10587;BME280;5341;47.606;7.576;2023-02-14T10:07:30;100558.19;;;8.38;56.87
10587;BME280;5341;47.606;7.576;2023-02-14T10:10:13;100558.31;;;8.48;56.57
10587;BME280;5341;47.606;7.576;2023-02-14T10:12:46;100562.28;;;8.54;56.46
10587;BME280;5341;47.606;7.576;2023-02-14T10:15:24;100562.63;;;8.60;56.39
10587;BME280;5341;47.606;7.576;2023-02-14T10:17:56;100553.28;;;8.66;56.62
10587;BME280;5341;47.606;7.576;2023-02-14T10:20:31;100561.63;;;8.72;56.43
10587;BME280;5341;47.606;7.576;2023-02-14T10:25:55;100547.28;;;8.85;56.13
10587;BME280;5341;47.606;7.576;2023-02-14T10:28:48;100551.94;;;8.92;56.08
10587;BME280;5341;47.606;7.576;2023-02-14T10:31:35;100544.31;;;8.99;55.74
10587;BME280;5341;47.606;7.576;2023-02-14T10:34:08;100546.31;;;9.06;55.87
10587;BME280;5341;47.606;7.576;2023-02-14T10:36:47;100541.06;;;9.16;55.57
10587;BME280;5341;47.606;7.576;2023-02-14T10:39:55;100542.09;;;9.25;55.57
10587;BME280;5341;47.606;7.576;2023-02-14T10:42:41;100537.81;;;9.33;55.46
10587;BME280;5341;47.606;7.576;2023-02-14T10:45:27;100529.41;;;9.38;55.14
10587;BME280;5341;47.606;7.576;2023-02-14T10:48:05;100527.03;;;9.45;55.05
10587;BME280;5341;47.606;7.576;2023-02-14T10:50:43;100518.50;;;9.51;54.88
10587;BME280;5341;47.606;7.576;2023-02-14T10:56:34;100510.41;;;9.62;54.64
10587;BME280;5341;47.606;7.576;2023-02-14T11:06:02;100496.75;;;9.86;53.85
10587;BME280;5341;47.606;7.576;2023-02-14T11:08:35;100490.84;;;9.92;53.79
10587;BME280;5341;47.606;7.576;2023-02-14T11:11:29;100486.66;;;9.99;53.79
10587;BME280;5341;47.606;7.576;2023-02-14T11:14:17;100485.25;;;10.05;54.06
10587;BME280;5341;47.606;7.576;2023-02-14T11:16:54;100480.34;;;10.10;53.68
10587;BME280;5341;47.606;7.576;2023-02-14T11:19:57;100479.09;;;10.14;54.25
10587;BME280;5341;47.606;7.576;2023-02-14T11:22:51;100478.56;;;10.20;54.28
10587;BME280;5341;47.606;7.576;2023-02-14T11:25:48;100470.13;;;10.24;54.15
10587;BME280;5341;47.606;7.576;2023-02-14T11:28:33;100454.13;;;10.34;54.09
10587;BME280;5341;47.606;7.576;2023-02-14T11:31:32;100455.81;;;10.45;53.67
10587;BME280;5341;47.606;7.576;2023-02-14T11:34:25;100453.16;;;10.54;53.12
10587;BME280;5341;47.606;7.576;2023-02-14T11:39:40;100444.00;;;10.67;52.49
10587;BME280;5341;47.606;7.576;2023-02-14T11:42:40;100435.09;;;10.76;52.91
10587;BME280;5341;47.606;7.576;2023-02-14T11:45:29;100430.88;;;10.83;52.77
10587;BME280;5341;47.606;7.576;2023-02-14T11:48:19;100441.00;;;10.89;52.71
10587;BME280;5341;47.606;7.576;2023-02-14T11:51:05;100430.72;;;10.94;52.55
10587;BME280;5341;47.606;7.576;2023-02-14T11:57:19;100425.91;;;10.98;52.73
10587;BME280;5341;47.606;7.576;2023-02-14T11:59:54;100421.84;;;11.03;52.78
10587;BME280;5341;47.606;7.576;2023-02-14T12:02:29;100419.41;;;11.10;52.48
10587;BME280;5341;47.606;7.576;2023-02-14T12:05:00;100408.13;;;11.16;52.61
10587;BME280;5341;47.606;7.576;2023-02-14T12:07:35;100414.28;;;11.26;52.22
10587;BME280;5341;47.606;7.576;2023-02-14T12:10:21;100410.72;;;11.35;51.69
10587;BME280;5341;47.606;7.576;2023-02-14T12:24:29;100382.13;;;11.63;51.24
10587;BME280;5341;47.606;7.576;2023-02-14T12:27:05;100379.16;;;11.66;51.12
10587;BME280;5341;47.606;7.576;2023-02-14T12:29:44;100378.53;;;11.72;50.90
10587;BME280;5341;47.606;7.576;2023-02-14T12:32:20;100375.28;;;11.79;50.81
10587;BME280;5341;47.606;7.576;2023-02-14T12:34:59;100372.00;;;11.85;51.08
10587;BME280;5341;47.606;7.576;2023-02-14T12:37:49;100375.09;;;11.90;50.70
10587;BME280;5341;47.606;7.576;2023-02-14T12:40:28;100365.59;;;11.95;51.17
10587;BME280;5341;47.606;7.576;2023-02-14T12:43:26;100364.84;;;12.03;50.66
10587;BME280;5341;47.606;7.576;2023-02-14T12:46:24;100362.84;;;12.05;50.40
10587;BME280;5341;47.606;7.576;2023-02-14T12:49:15;100350.66;;;12.11;50.73
10587;BME280;5341;47.606;7.576;2023-02-14T12:52:11;100354.75;;;12.15;50.72
10587;BME280;5341;47.606;7.576;2023-02-14T12:54:57;100347.06;;;12.20;50.24
10587;BME280;5341;47.606;7.576;2023-02-14T12:57:34;100346.47;;;12.26;50.12
10587;BME280;5341;47.606;7.576;2023-02-14T13:00:22;100339.47;;;12.33;50.42
10587;BME280;5341;47.606;7.576;2023-02-14T13:03:19;100333.50;;;12.39;49.92
10587;BME280;5341;47.606;7.576;2023-02-14T13:05:58;100328.31;;;12.46;50.72
10587;BME280;5341;47.606;7.576;2023-02-14T13:08:43;100330.56;;;12.50;49.78
10587;BME280;5341;47.606;7.576;2023-02-14T13:11:18;100322.03;;;12.55;49.86
10587;BME280;5341;47.606;7.576;2023-02-14T13:13:54;100318.19;;;12.57;49.70
10587;BME280;5341;47.606;7.576;2023-02-14T13:16:33;100316.91;;;12.61;49.63
10587;BME280;5341;47.606;7.576;2023-02-14T13:19:13;100311.88;;;12.67;49.53
10587;BME280;5341;47.606;7.576;2023-02-14T13:21:48;100308.72;;;12.71;50.46
10587;BME280;5341;47.606;7.576;2023-02-14T13:24:18;100308.94;;;12.78;50.27
10587;BME280;5341;47.606;7.576;2023-02-14T13:26:50;100303.78;;;12.84;49.97
10587;BME280;5341;47.606;7.576;2023-02-14T13:29:21;100294.25;;;12.90;49.49
10587;BME280;5341;47.606;7.576;2023-02-14T13:31:53;100299.28;;;12.93;50.01
10587;BME280;5341;47.606;7.576;2023-02-14T13:34:31;100295.13;;;12.99;49.93
10587;BME280;5341;47.606;7.576;2023-02-14T13:37:05;100292.78;;;13.04;50.17
10587;BME280;5341;47.606;7.576;2023-02-14T13:39:37;100283.28;;;13.09;49.86
10587;BME280;5341;47.606;7.576;2023-02-14T13:42:06;100284.47;;;13.15;48.95
10587;BME280;5341;47.606;7.576;2023-02-14T13:44:45;100285.84;;;13.19;49.21
10587;BME280;5341;47.606;7.576;2023-02-14T13:47:18;100286.22;;;13.24;49.03
10587;BME280;5341;47.606;7.576;2023-02-14T13:49:49;100274.28;;;13.27;49.77
10587;BME280;5341;47.606;7.576;2023-02-14T13:52:41;100269.97;;;13.34;49.89
10587;BME280;5341;47.606;7.576;2023-02-14T13:55:15;100273.16;;;13.37;50.00
10587;BME280;5341;47.606;7.576;2023-02-14T13:57:44;100268.47;;;13.39;50.11
10587;BME280;5341;47.606;7.576;2023-02-14T14:00:44;100269.66;;;13.45;49.60
10587;BME280;5341;47.606;7.576;2023-02-14T14:03:14;100266.66;;;13.48;49.47
10587;BME280;5341;47.606;7.576;2023-02-14T14:05:48;100267.16;;;13.52;49.61
10587;BME280;5341;47.606;7.576;2023-02-14T14:08:45;100269.19;;;13.58;48.80
10587;BME280;5341;47.606;7.576;2023-02-14T14:14:30;100263.13;;;13.64;49.89
10587;BME280;5341;47.606;7.576;2023-02-14T14:17:02;100264.66;;;13.66;49.63
10587;BME280;5341;47.606;7.576;2023-02-14T14:19:38;100257.13;;;13.70;49.75
10587;BME280;5341;47.606;7.576;2023-02-14T14:22:08;100262.00;;;13.74;49.86
10587;BME280;5341;47.606;7.576;2023-02-14T14:24:39;100262.50;;;13.78;49.79
10587;BME280;5341;47.606;7.576;2023-02-14T14:27:13;100262.84;;;13.83;49.58
10587;BME280;5341;47.606;7.576;2023-02-14T14:29:45;100252.59;;;13.87;49.12
10587;BME280;5341;47.606;7.576;2023-02-14T14:32:17;100251.25;;;13.91;49.12
10587;BME280;5341;47.606;7.576;2023-02-14T14:34:50;100247.22;;;13.95;49.05